sensor_id;sensor_type;location;lat;lon;timestamp;pressure;altitude;pressure_sealevel;temperature;humidity
42169;BME280;27838;43.858;25.974;2024-03-06T00:00:28;101001.53;;;11.98;52.60
42169;BME280;27838;43.858;25.974;2024-03-06T00:02:55;100998.06;;;11.91;52.76
42169;BME280;27838;43.858;25.974;2024-03-06T00:05:21;101008.50;;;11.93;52.59
42169;BME280;27838;43.858;25.974;2024-03-06T00:07:48;101005.03;;;11.90;52.49
42169;BME280;27838;43.858;25.974;2024-03-06T00:10:14;101011.13;;;11.94;52.74
42169;BME280;27838;43.858;25.974;2024-03-06T00:12:41;101010.22;;;11.84;53.01
42169;BME280;27838;43.858;25.974;2024-03-06T00:15:08;101009.34;;;11.85;52.93
42169;BME280;27838;43.858;25.974;2024-03-06T00:17:34;101010.22;;;11.84;53.01
42169;BME280;27838;43.858;25.974;2024-03-06T00:20:01;101009.34;;;11.79;53.06
42169;BME280;27838;43.858;25.974;2024-03-06T00:22:30;101004.16;;;11.75;52.94
42169;BME280;27838;43.858;25.974;2024-03-06T00:24:57;101011.09;;;11.79;53.23
42169;BME280;27838;43.858;25.974;2024-03-06T00:27:23;101014.56;;;11.81;53.28
42169;BME280;27838;43.858;25.974;2024-03-06T00:29:50;101014.56;;;11.79;53.59
42169;BME280;27838;43.858;25.974;2024-03-06T00:32:16;101025.91;;;11.81;53.97
42169;BME280;27838;43.858;25.974;2024-03-06T00:34:43;101023.28;;;11.84;54.12
42169;BME280;27838;43.858;25.974;2024-03-06T00:37:09;101022.41;;;11.87;53.97
42169;BME280;27838;43.858;25.974;2024-03-06T00:39:36;101011.09;;;11.77;54.29
42169;BME280;27838;43.858;25.974;2024-03-06T00:42:03;101014.56;;;11.84;54.49
42169;BME280;27838;43.858;25.974;2024-03-06T00:44:30;101021.53;;;11.79;54.64
42169;BME280;27838;43.858;25.974;2024-03-06T00:46:56;101020.69;;;11.75;54.98
42169;BME280;27838;43.858;25.974;2024-03-06T00:49:23;101018.94;;;11.71;55.26
42169;BME280;27838;43.858;25.974;2024-03-06T00:51:49;101031.97;;;11.74;54.98
42169;BME280;27838;43.858;25.974;2024-03-06T00:54:16;101034.59;;;11.76;55.43
42169;BME280;27838;43.858;25.974;2024-03-06T00:56:42;101043.31;;;11.82;55.41
42169;BME280;27838;43.858;25.974;2024-03-06T00:59:09;101032.84;;;11.79;55.67
42169;BME280;27838;43.858;25.974;2024-03-06T01:01:35;101031.13;;;11.77;55.89
42169;BME280;27838;43.858;25.974;2024-03-06T01:04:02;101027.66;;;11.73;56.02
42169;BME280;27838;43.858;25.974;2024-03-06T01:06:29;101035.50;;;11.78;55.68
42169;BME280;27838;43.858;25.974;2024-03-06T01:08:55;101042.44;;;11.77;55.70
42169;BME280;27838;43.858;25.974;2024-03-06T01:11:23;101038.94;;;11.75;55.82
42169;BME280;27838;43.858;25.974;2024-03-06T01:13:51;101038.94;;;11.74;56.07
42169;BME280;27838;43.858;25.974;2024-03-06T01:16:18;101037.19;;;11.65;56.20
42169;BME280;27838;43.858;25.974;2024-03-06T01:18:45;101034.59;;;11.68;56.05
42169;BME280;27838;43.858;25.974;2024-03-06T01:21:11;101031.97;;;11.62;56.46
42169;BME280;27838;43.858;25.974;2024-03-06T01:23:38;101030.25;;;11.50;56.78
42169;BME280;27838;43.858;25.974;2024-03-06T01:26:05;101039.81;;;11.43;57.17
42169;BME280;27838;43.858;25.974;2024-03-06T01:28:31;101047.63;;;11.39;57.12
42169;BME280;27838;43.858;25.974;2024-03-06T01:30:58;101040.69;;;11.38;57.50
42169;BME280;27838;43.858;25.974;2024-03-06T01:33:25;101049.38;;;11.40;57.56
42169;BME280;27838;43.858;25.974;2024-03-06T01:35:51;101052.00;;;11.41;57.44
42169;BME280;27838;43.858;25.974;2024-03-06T01:38:18;101046.75;;;11.47;57.48
42169;BME280;27838;43.858;25.974;2024-03-06T01:40:44;101052.88;;;11.45;57.71
42169;BME280;27838;43.858;25.974;2024-03-06T01:43:24;101055.47;;;11.46;58.52
42169;BME280;27838;43.858;25.974;2024-03-06T01:45:52;101052.00;;;11.49;58.30
42169;BME280;27838;43.858;25.974;2024-03-06T01:48:21;101046.75;;;11.46;58.68
42169;BME280;27838;43.858;25.974;2024-03-06T01:50:51;101051.97;;;11.40;59.22
42169;BME280;27838;43.858;25.974;2024-03-06T01:53:22;101047.63;;;11.43;59.01
42169;BME280;27838;43.858;25.974;2024-03-06T01:55:49;101058.06;;;11.43;59.11
42169;BME280;27838;43.858;25.974;2024-03-06T01:58:17;101055.47;;;11.46;59.16
42169;BME280;27838;43.858;25.974;2024-03-06T02:00:44;101051.97;;;11.47;58.92
42169;BME280;27838;43.858;25.974;2024-03-06T02:03:11;101059.81;;;11.50;58.99
42169;BME280;27838;43.858;25.974;2024-03-06T02:05:38;101058.97;;;11.48;59.07
42169;BME280;27838;43.858;25.974;2024-03-06T02:08:06;101055.47;;;11.46;59.16
42169;BME280;27838;43.858;25.974;2024-03-06T02:10:33;101057.22;;;11.50;59.38
42169;BME280;27838;43.858;25.974;2024-03-06T02:13:00;101061.56;;;11.53;59.67
42169;BME280;27838;43.858;25.974;2024-03-06T02:15:26;101058.09;;;11.52;59.92
42169;BME280;27838;43.858;25.974;2024-03-06T02:17:53;101058.09;;;11.54;59.64
42169;BME280;27838;43.858;25.974;2024-03-06T02:20:24;101064.16;;;11.55;59.65
42169;BME280;27838;43.858;25.974;2024-03-06T02:22:50;101057.22;;;11.53;59.89
42169;BME280;27838;43.858;25.974;2024-03-06T02:25:17;101065.91;;;11.52;60.02
42169;BME280;27838;43.858;25.974;2024-03-06T02:27:45;101061.56;;;11.48;60.38
42169;BME280;27838;43.858;25.974;2024-03-06T02:30:13;101069.38;;;11.45;60.84
42169;BME280;27838;43.858;25.974;2024-03-06T02:32:40;101064.16;;;11.42;60.73
42169;BME280;27838;43.858;25.974;2024-03-06T02:35:08;101071.13;;;11.43;60.56
42169;BME280;27838;43.858;25.974;2024-03-06T02:37:35;101067.66;;;11.41;60.61
42169;BME280;27838;43.858;25.974;2024-03-06T02:40:02;101072.00;;;11.44;60.88
42169;BME280;27838;43.858;25.974;2024-03-06T02:42:32;101073.72;;;11.42;61.29
42169;BME280;27838;43.858;25.974;2024-03-06T02:44:59;101065.88;;;11.37;61.33
42169;BME280;27838;43.858;25.974;2024-03-06T02:47:25;101067.66;;;11.41;61.25
42169;BME280;27838;43.858;25.974;2024-03-06T02:49:52;101068.53;;;11.45;61.14
42169;BME280;27838;43.858;25.974;2024-03-06T02:52:18;101071.13;;;11.49;60.28
42169;BME280;27838;43.858;25.974;2024-03-06T02:54:45;101066.78;;;11.50;59.73
42169;BME280;27838;43.858;25.974;2024-03-06T02:57:11;101076.34;;;11.48;59.77
42169;BME280;27838;43.858;25.974;2024-03-06T02:59:39;101073.75;;;11.51;59.15
42169;BME280;27838;43.858;25.974;2024-03-06T03:02:06;101076.34;;;11.52;58.90
42169;BME280;27838;43.858;25.974;2024-03-06T03:04:33;101077.25;;;11.51;59.14
42169;BME280;27838;43.858;25.974;2024-03-06T03:06:59;101080.69;;;11.49;59.38
42169;BME280;27838;43.858;25.974;2024-03-06T03:09:26;101084.19;;;11.46;59.21
42169;BME280;27838;43.858;25.974;2024-03-06T03:11:53;101088.53;;;11.47;59.21
42169;BME280;27838;43.858;25.974;2024-03-06T03:14:19;101093.75;;;11.41;60.48
42169;BME280;27838;43.858;25.974;2024-03-06T03:16:46;101092.00;;;11.34;60.81
42169;BME280;27838;43.858;25.974;2024-03-06T03:19:12;101075.44;;;11.27;61.12
42169;BME280;27838;43.858;25.974;2024-03-06T03:21:43;101085.88;;;11.30;60.61
42169;BME280;27838;43.858;25.974;2024-03-06T03:24:10;101101.53;;;11.35;60.17
42169;BME280;27838;43.858;25.974;2024-03-06T03:26:37;101098.94;;;11.37;60.94
42169;BME280;27838;43.858;25.974;2024-03-06T03:29:03;101108.53;;;11.38;60.76
42169;BME280;27838;43.858;25.974;2024-03-06T03:31:30;101105.03;;;11.32;61.16
42169;BME280;27838;43.858;25.974;2024-03-06T03:33:58;101106.75;;;11.30;60.79
42169;BME280;27838;43.858;25.974;2024-03-06T03:36:24;101110.22;;;11.28;61.33
42169;BME280;27838;43.858;25.974;2024-03-06T03:38:51;101118.06;;;11.31;61.50
42169;BME280;27838;43.858;25.974;2024-03-06T03:41:17;101117.19;;;11.32;60.96
42169;BME280;27838;43.858;25.974;2024-03-06T03:43:45;101117.22;;;11.35;60.90
42169;BME280;27838;43.858;25.974;2024-03-06T03:46:11;101118.94;;;11.39;60.92
42169;BME280;27838;43.858;25.974;2024-03-06T03:48:39;101122.44;;;11.35;60.63
42169;BME280;27838;43.858;25.974;2024-03-06T03:51:06;101121.56;;;11.42;60.01
42169;BME280;27838;43.858;25.974;2024-03-06T03:53:33;101126.78;;;11.39;60.23
42169;BME280;27838;43.858;25.974;2024-03-06T03:56:00;101129.41;;;11.41;60.03
42169;BME280;27838;43.858;25.974;2024-03-06T03:58:27;101131.16;;;11.40;60.08
42169;BME280;27838;43.858;25.974;2024-03-06T04:00:53;101126.75;;;11.30;60.67
42169;BME280;27838;43.858;25.974;2024-03-06T04:03:21;101135.47;;;11.32;60.30
42169;BME280;27838;43.858;25.974;2024-03-06T04:05:48;101131.97;;;11.30;60.83
42169;BME280;27838;43.858;25.974;2024-03-06T04:08:15;101137.19;;;11.24;60.07
42169;BME280;27838;43.858;25.974;2024-03-06T04:10:42;101137.19;;;11.22;60.35
42169;BME280;27838;43.858;25.974;2024-03-06T04:13:10;101135.44;;;11.17;60.57
42169;BME280;27838;43.858;25.974;2024-03-06T04:15:37;101131.03;;;11.06;59.64
42169;BME280;27838;43.858;25.974;2024-03-06T04:18:04;101132.69;;;10.89;59.10
42169;BME280;27838;43.858;25.974;2024-03-06T04:20:31;101132.63;;;10.81;58.74
42169;BME280;27838;43.858;25.974;2024-03-06T04:22:57;101135.16;;;10.67;59.33
42169;BME280;27838;43.858;25.974;2024-03-06T04:25:24;101137.72;;;10.61;59.56
42169;BME280;27838;43.858;25.974;2024-03-06T04:27:51;101139.44;;;10.57;59.78
42169;BME280;27838;43.858;25.974;2024-03-06T04:30:17;101140.28;;;10.55;59.45
42169;BME280;27838;43.858;25.974;2024-03-06T04:32:44;101154.16;;;10.51;59.23
42169;BME280;27838;43.858;25.974;2024-03-06T04:35:10;101158.50;;;10.49;59.15
42169;BME280;27838;43.858;25.974;2024-03-06T04:37:37;101166.28;;;10.46;59.41
42169;BME280;27838;43.858;25.974;2024-03-06T04:40:04;101154.97;;;10.42;59.59
42169;BME280;27838;43.858;25.974;2024-03-06T04:42:36;101161.03;;;10.38;59.79
42169;BME280;27838;43.858;25.974;2024-03-06T04:45:03;101163.59;;;10.35;59.18
42169;BME280;27838;43.858;25.974;2024-03-06T04:47:30;101160.88;;;10.27;59.00
42169;BME280;27838;43.858;25.974;2024-03-06T04:49:56;101153.88;;;10.17;59.14
42169;BME280;27838;43.858;25.974;2024-03-06T04:52:24;101166.06;;;10.21;59.41
42169;BME280;27838;43.858;25.974;2024-03-06T04:54:50;101172.13;;;10.20;59.69
42169;BME280;27838;43.858;25.974;2024-03-06T04:57:17;101169.50;;;10.20;59.62
42169;BME280;27838;43.858;25.974;2024-03-06T04:59:44;101175.59;;;10.17;59.73
42169;BME280;27838;43.858;25.974;2024-03-06T05:02:11;101179.06;;;10.19;59.85
42169;BME280;27838;43.858;25.974;2024-03-06T05:04:37;101172.91;;;10.11;60.84
42169;BME280;27838;43.858;25.974;2024-03-06T05:07:04;101188.59;;;10.16;60.57
42169;BME280;27838;43.858;25.974;2024-03-06T05:09:30;101179.91;;;10.15;60.74
42169;BME280;27838;43.858;25.974;2024-03-06T05:11:57;101189.50;;;10.21;61.04
42169;BME280;27838;43.858;25.974;2024-03-06T05:14:23;101186.84;;;10.15;60.92
42169;BME280;27838;43.858;25.974;2024-03-06T05:16:50;101198.97;;;10.13;60.36
42169;BME280;27838;43.858;25.974;2024-03-06T05:19:18;101206.78;;;10.11;60.47
42169;BME280;27838;43.858;25.974;2024-03-06T05:21:45;101201.56;;;10.08;60.03
42169;BME280;27838;43.858;25.974;2024-03-06T05:24:11;101208.47;;;10.06;59.57
42169;BME280;27838;43.858;25.974;2024-03-06T05:26:37;101205.75;;;9.95;60.31
42169;BME280;27838;43.858;25.974;2024-03-06T05:29:04;101213.56;;;9.97;59.87
42169;BME280;27838;43.858;25.974;2024-03-06T05:31:30;101209.19;;;9.91;59.81
42169;BME280;27838;43.858;25.974;2024-03-06T05:33:57;101218.72;;;9.92;59.40
42169;BME280;27838;43.858;25.974;2024-03-06T05:36:23;101208.31;;;9.92;59.55
42169;BME280;27838;43.858;25.974;2024-03-06T05:38:50;101221.44;;;10.00;59.66
42169;BME280;27838;43.858;25.974;2024-03-06T05:41:17;101224.84;;;9.94;59.47
42169;BME280;27838;43.858;25.974;2024-03-06T05:43:44;101234.41;;;9.95;59.17
42169;BME280;27838;43.858;25.974;2024-03-06T05:46:11;101237.88;;;9.96;59.38
42169;BME280;27838;43.858;25.974;2024-03-06T05:48:37;101242.28;;;10.01;58.93
42169;BME280;27838;43.858;25.974;2024-03-06T05:51:05;101226.53;;;9.89;58.20
42169;BME280;27838;43.858;25.974;2024-03-06T05:53:38;101237.03;;;9.97;58.14
42169;BME280;27838;43.858;25.974;2024-03-06T05:56:07;101248.34;;;10.00;58.71
42169;BME280;27838;43.858;25.974;2024-03-06T05:58:34;101241.44;;;10.04;58.77
42169;BME280;27838;43.858;25.974;2024-03-06T06:01:01;101249.31;;;10.09;58.57
42169;BME280;27838;43.858;25.974;2024-03-06T06:03:29;101250.97;;;10.04;59.24
42169;BME280;27838;43.858;25.974;2024-03-06T06:05:56;101245.78;;;10.04;58.96
42169;BME280;27838;43.858;25.974;2024-03-06T06:08:23;101243.22;;;10.07;59.08
42169;BME280;27838;43.858;25.974;2024-03-06T06:10:50;101235.41;;;10.10;58.46
42169;BME280;27838;43.858;25.974;2024-03-06T06:13:18;101253.72;;;10.16;58.58
42169;BME280;27838;43.858;25.974;2024-03-06T06:15:45;101250.25;;;10.17;58.41
42169;BME280;27838;43.858;25.974;2024-03-06T06:18:10;101253.72;;;10.17;57.98
42169;BME280;27838;43.858;25.974;2024-03-06T06:20:37;101256.38;;;10.22;58.00
42169;BME280;27838;43.858;25.974;2024-03-06T06:23:04;101257.22;;;10.19;58.85
42169;BME280;27838;43.858;25.974;2024-03-06T06:25:31;101257.19;;;10.16;58.91
42169;BME280;27838;43.858;25.974;2024-03-06T06:27:57;101259.81;;;10.18;58.97
42169;BME280;27838;43.858;25.974;2024-03-06T06:30:24;101253.75;;;10.19;58.61
42169;BME280;27838;43.858;25.974;2024-03-06T06:32:51;101262.50;;;10.26;58.13
42169;BME280;27838;43.858;25.974;2024-03-06T06:35:17;101262.50;;;10.27;58.11
42169;BME280;27838;43.858;25.974;2024-03-06T06:37:44;101267.75;;;10.30;57.70
42169;BME280;27838;43.858;25.974;2024-03-06T06:40:11;101269.47;;;10.30;57.97
42169;BME280;27838;43.858;25.974;2024-03-06T06:42:44;101280.00;;;10.34;58.12
42169;BME280;27838;43.858;25.974;2024-03-06T06:45:17;101272.16;;;10.36;57.81
42169;BME280;27838;43.858;25.974;2024-03-06T06:47:45;101268.66;;;10.32;58.79
42169;BME280;27838;43.858;25.974;2024-03-06T06:50:12;101272.97;;;10.30;59.09
42169;BME280;27838;43.858;25.974;2024-03-06T06:52:39;101260.75;;;10.25;58.67
42169;BME280;27838;43.858;25.974;2024-03-06T06:55:06;101265.22;;;10.33;59.09
42169;BME280;27838;43.858;25.974;2024-03-06T06:57:34;101266.16;;;10.40;58.68
42169;BME280;27838;43.858;25.974;2024-03-06T07:00:02;101263.56;;;10.42;58.70
42169;BME280;27838;43.858;25.974;2024-03-06T07:02:36;101261.88;;;10.47;58.76
42169;BME280;27838;43.858;25.974;2024-03-06T07:05:04;101262.78;;;10.53;58.07
42169;BME280;27838;43.858;25.974;2024-03-06T07:07:31;101265.44;;;10.58;58.66
42169;BME280;27838;43.858;25.974;2024-03-06T07:09:57;101273.28;;;10.61;58.60
42169;BME280;27838;43.858;25.974;2024-03-06T07:12:24;101261.97;;;10.59;58.15
42169;BME280;27838;43.858;25.974;2024-03-06T07:14:50;101271.53;;;10.60;57.89
42169;BME280;27838;43.858;25.974;2024-03-06T07:17:17;101282.03;;;10.66;58.10
42169;BME280;27838;43.858;25.974;2024-03-06T07:19:43;101280.31;;;10.70;57.97
42169;BME280;27838;43.858;25.974;2024-03-06T07:22:10;101286.41;;;10.73;57.76
42169;BME280;27838;43.858;25.974;2024-03-06T07:24:37;101283.84;;;10.78;57.88
42169;BME280;27838;43.858;25.974;2024-03-06T07:27:04;101278.69;;;10.86;57.69
42169;BME280;27838;43.858;25.974;2024-03-06T07:29:31;101275.22;;;10.85;57.59
42169;BME280;27838;43.858;25.974;2024-03-06T07:31:57;101283.09;;;10.93;57.67
42169;BME280;27838;43.858;25.974;2024-03-06T07:34:24;101281.34;;;10.92;57.59
42169;BME280;27838;43.858;25.974;2024-03-06T07:36:51;101275.25;;;10.90;56.75
42169;BME280;27838;43.858;25.974;2024-03-06T07:39:19;101294.47;;;11.04;56.80
42169;BME280;27838;43.858;25.974;2024-03-06T07:41:46;101304.94;;;11.07;55.93
42169;BME280;27838;43.858;25.974;2024-03-06T07:44:13;101294.53;;;11.10;56.39
42169;BME280;27838;43.858;25.974;2024-03-06T07:46:40;101300.59;;;11.11;55.76
42169;BME280;27838;43.858;25.974;2024-03-06T07:49:06;101306.72;;;11.14;55.80
42169;BME280;27838;43.858;25.974;2024-03-06T07:51:33;101299.78;;;11.18;55.79
42169;BME280;27838;43.858;25.974;2024-03-06T07:54:01;101312.88;;;11.23;55.35
42169;BME280;27838;43.858;25.974;2024-03-06T07:56:29;101306.78;;;11.21;55.25
42169;BME280;27838;43.858;25.974;2024-03-06T07:58:56;101307.66;;;11.23;55.25
42169;BME280;27838;43.858;25.974;2024-03-06T08:01:22;101303.34;;;11.28;55.05
42169;BME280;27838;43.858;25.974;2024-03-06T08:03:49;101318.16;;;11.33;54.85
42169;BME280;27838;43.858;25.974;2024-03-06T08:06:16;101315.53;;;11.32;54.87
42169;BME280;27838;43.858;25.974;2024-03-06T08:08:44;101313.81;;;11.31;54.49
42169;BME280;27838;43.858;25.974;2024-03-06T08:11:12;101319.06;;;11.40;53.86
42169;BME280;27838;43.858;25.974;2024-03-06T08:13:39;101320.84;;;11.41;53.92
42169;BME280;27838;43.858;25.974;2024-03-06T08:16:06;101325.16;;;11.42;53.97
42169;BME280;27838;43.858;25.974;2024-03-06T08:18:34;101323.44;;;11.44;54.06
42169;BME280;27838;43.858;25.974;2024-03-06T08:21:01;101333.94;;;11.50;53.98
42169;BME280;27838;43.858;25.974;2024-03-06T08:23:29;101332.19;;;11.52;53.94
42169;BME280;27838;43.858;25.974;2024-03-06T08:25:55;101325.25;;;11.51;53.74
42169;BME280;27838;43.858;25.974;2024-03-06T08:28:22;101334.81;;;11.52;54.40
42169;BME280;27838;43.858;25.974;2024-03-06T08:30:48;101338.28;;;11.55;53.59
42169;BME280;27838;43.858;25.974;2024-03-06T08:33:17;101339.13;;;11.47;53.43
42169;BME280;27838;43.858;25.974;2024-03-06T08:35:46;101339.13;;;11.47;53.26
42169;BME280;27838;43.858;25.974;2024-03-06T08:38:13;101340.91;;;11.51;53.65
42169;BME280;27838;43.858;25.974;2024-03-06T08:40:39;101336.53;;;11.50;53.88
42169;BME280;27838;43.858;25.974;2024-03-06T08:43:07;101328.69;;;11.50;53.57
42169;BME280;27838;43.858;25.974;2024-03-06T08:45:34;101331.34;;;11.58;52.98
42169;BME280;27838;43.858;25.974;2024-03-06T08:48:01;101331.41;;;11.66;52.76
42169;BME280;27838;43.858;25.974;2024-03-06T08:50:28;101328.81;;;11.69;52.50
42169;BME280;27838;43.858;25.974;2024-03-06T08:52:55;101334.06;;;11.75;52.61
42169;BME280;27838;43.858;25.974;2024-03-06T08:55:22;101326.22;;;11.75;52.46
42169;BME280;27838;43.858;25.974;2024-03-06T08:57:48;101316.66;;;11.73;51.93
42169;BME280;27838;43.858;25.974;2024-03-06T09:00:18;101326.25;;;11.78;52.00
42169;BME280;27838;43.858;25.974;2024-03-06T09:02:44;101331.47;;;11.84;52.07
42169;BME280;27838;43.858;25.974;2024-03-06T09:05:12;101322.78;;;11.84;51.93
42169;BME280;27838;43.858;25.974;2024-03-06T09:07:39;101322.78;;;11.85;52.43
42169;BME280;27838;43.858;25.974;2024-03-06T09:10:06;101321.03;;;11.83;52.83
42169;BME280;27838;43.858;25.974;2024-03-06T09:12:33;101301.84;;;11.79;52.72
42169;BME280;27838;43.858;25.974;2024-03-06T09:15:00;101321.97;;;11.93;52.33
42169;BME280;27838;43.858;25.974;2024-03-06T09:17:28;101319.31;;;11.85;51.55
42169;BME280;27838;43.858;25.974;2024-03-06T09:19:55;101318.41;;;11.84;52.01
42169;BME280;27838;43.858;25.974;2024-03-06T09:22:22;101316.72;;;11.86;51.98
42169;BME280;27838;43.858;25.974;2024-03-06T09:24:48;101320.22;;;11.92;51.31
42169;BME280;27838;43.858;25.974;2024-03-06T09:27:15;101310.66;;;11.97;51.31
42169;BME280;27838;43.858;25.974;2024-03-06T09:29:43;101307.22;;;12.04;51.36
42169;BME280;27838;43.858;25.974;2024-03-06T09:32:09;101308.97;;;12.08;51.18
42169;BME280;27838;43.858;25.974;2024-03-06T09:34:38;101307.25;;;12.15;51.22
42169;BME280;27838;43.858;25.974;2024-03-06T09:37:04;101308.13;;;12.18;51.33
42169;BME280;27838;43.858;25.974;2024-03-06T09:39:31;101304.66;;;12.21;51.39
42169;BME280;27838;43.858;25.974;2024-03-06T09:41:59;101310.75;;;12.26;51.12
42169;BME280;27838;43.858;25.974;2024-03-06T09:44:26;101307.28;;;12.27;50.64
42169;BME280;27838;43.858;25.974;2024-03-06T09:46:54;101306.44;;;12.34;50.60
42169;BME280;27838;43.858;25.974;2024-03-06T09:49:21;101293.38;;;12.37;50.12
42169;BME280;27838;43.858;25.974;2024-03-06T09:51:49;101295.13;;;12.46;50.25
42169;BME280;27838;43.858;25.974;2024-03-06T09:54:16;101289.88;;;12.51;50.04
42169;BME280;27838;43.858;25.974;2024-03-06T09:56:44;101297.72;;;12.49;49.59
42169;BME280;27838;43.858;25.974;2024-03-06T09:59:11;101298.59;;;12.57;49.78
42169;BME280;27838;43.858;25.974;2024-03-06T10:01:43;101283.78;;;12.56;49.79
42169;BME280;27838;43.858;25.974;2024-03-06T10:04:25;101289.03;;;12.62;49.13
42169;BME280;27838;43.858;25.974;2024-03-06T10:07:01;101295.13;;;12.68;49.35
42169;BME280;27838;43.858;25.974;2024-03-06T10:09:29;101291.66;;;12.67;49.68
42169;BME280;27838;43.858;25.974;2024-03-06T10:11:56;101293.38;;;12.66;49.62
42169;BME280;27838;43.858;25.974;2024-03-06T10:14:23;101292.50;;;12.74;49.31
42169;BME280;27838;43.858;25.974;2024-03-06T10:16:54;101296.00;;;12.76;50.20
42169;BME280;27838;43.858;25.974;2024-03-06T10:19:22;101297.75;;;12.77;50.24
42169;BME280;27838;43.858;25.974;2024-03-06T10:21:50;101294.25;;;12.73;49.61
42169;BME280;27838;43.858;25.974;2024-03-06T10:24:25;101296.00;;;12.76;50.14
42169;BME280;27838;43.858;25.974;2024-03-06T10:26:52;101298.63;;;12.76;50.27
42169;BME280;27838;43.858;25.974;2024-03-06T10:29:22;101291.66;;;12.76;49.85
42169;BME280;27838;43.858;25.974;2024-03-06T10:31:59;101292.50;;;12.80;50.16
42169;BME280;27838;43.858;25.974;2024-03-06T10:34:28;101283.81;;;12.69;50.26
42169;BME280;27838;43.858;25.974;2024-03-06T10:37:01;101281.19;;;12.76;50.29
42169;BME280;27838;43.858;25.974;2024-03-06T10:39:30;101285.53;;;12.82;49.99
42169;BME280;27838;43.858;25.974;2024-03-06T10:41:57;101268.13;;;12.81;50.20
42169;BME280;27838;43.858;25.974;2024-03-06T10:44:25;101268.09;;;12.90;49.96
42169;BME280;27838;43.858;25.974;2024-03-06T10:47:00;101265.47;;;12.98;49.58
42169;BME280;27838;43.858;25.974;2024-03-06T10:49:29;101262.84;;;13.06;49.30
42169;BME280;27838;43.858;25.974;2024-03-06T10:52:04;101268.94;;;13.17;49.46
42169;BME280;27838;43.858;25.974;2024-03-06T10:54:32;101270.69;;;13.18;49.34
42169;BME280;27838;43.858;25.974;2024-03-06T10:57:00;101270.69;;;13.19;49.41
42169;BME280;27838;43.858;25.974;2024-03-06T10:59:29;101270.66;;;13.26;49.09
42169;BME280;27838;43.858;25.974;2024-03-06T11:01:59;101268.03;;;13.24;48.89
42169;BME280;27838;43.858;25.974;2024-03-06T11:04:27;101264.56;;;13.34;48.47
42169;BME280;27838;43.858;25.974;2024-03-06T11:06:56;101257.56;;;13.46;48.12
42169;BME280;27838;43.858;25.974;2024-03-06T11:09:25;101259.28;;;13.44;48.11
42169;BME280;27838;43.858;25.974;2024-03-06T11:11:53;101257.50;;;13.55;48.66
42169;BME280;27838;43.858;25.974;2024-03-06T11:14:23;101267.94;;;13.66;48.05
42169;BME280;27838;43.858;25.974;2024-03-06T11:17:06;101260.06;;;13.69;48.14
42169;BME280;27838;43.858;25.974;2024-03-06T11:28:43;101253.88;;;13.84;47.55
42169;BME280;27838;43.858;25.974;2024-03-06T11:31:15;101251.25;;;13.88;47.27
42169;BME280;27838;43.858;25.974;2024-03-06T11:33:52;101249.47;;;13.92;47.07
42169;BME280;27838;43.858;25.974;2024-03-06T11:36:29;101253.84;;;13.94;46.87
42169;BME280;27838;43.858;25.974;2024-03-06T11:38:59;101260.78;;;14.00;46.71
42169;BME280;27838;43.858;25.974;2024-03-06T11:41:27;101258.13;;;14.05;46.98
42169;BME280;27838;43.858;25.974;2024-03-06T11:43:55;101245.00;;;14.09;46.90
42169;BME280;27838;43.858;25.974;2024-03-06T11:46:23;101239.81;;;14.03;46.38
42169;BME280;27838;43.858;25.974;2024-03-06T11:49:17;101234.59;;;13.94;46.54
42169;BME280;27838;43.858;25.974;2024-03-06T11:51:46;101245.94;;;14.01;45.67
42169;BME280;27838;43.858;25.974;2024-03-06T11:54:13;101239.78;;;14.05;45.54
42169;BME280;27838;43.858;25.974;2024-03-06T11:56:41;101245.91;;;14.04;45.50
42169;BME280;27838;43.858;25.974;2024-03-06T11:59:07;101240.69;;;14.05;45.72
42169;BME280;27838;43.858;25.974;2024-03-06T12:01:35;101241.53;;;14.06;46.29
42169;BME280;27838;43.858;25.974;2024-03-06T12:04:03;101239.84;;;13.97;46.71
42169;BME280;27838;43.858;25.974;2024-03-06T12:06:32;101239.84;;;13.97;46.58
42169;BME280;27838;43.858;25.974;2024-03-06T12:08:59;101248.56;;;13.96;46.89
42169;BME280;27838;43.858;25.974;2024-03-06T12:11:26;101243.31;;;13.99;46.91
42169;BME280;27838;43.858;25.974;2024-03-06T12:13:54;101232.03;;;13.91;46.65
42169;BME280;27838;43.858;25.974;2024-03-06T12:16:20;101232.03;;;13.88;46.77
42169;BME280;27838;43.858;25.974;2024-03-06T12:18:54;101224.25;;;13.75;47.70
42169;BME280;27838;43.858;25.974;2024-03-06T12:21:27;101223.47;;;13.58;47.08
42169;BME280;27838;43.858;25.974;2024-03-06T12:24:04;101217.38;;;13.50;47.11
42169;BME280;27838;43.858;25.974;2024-03-06T12:26:31;101223.44;;;13.59;46.99
42169;BME280;27838;43.858;25.974;2024-03-06T12:29:08;101219.94;;;13.64;46.54
42169;BME280;27838;43.858;25.974;2024-03-06T12:31:36;101228.66;;;13.63;47.10
42169;BME280;27838;43.858;25.974;2024-03-06T12:34:05;101219.06;;;13.63;46.98
42169;BME280;27838;43.858;25.974;2024-03-06T12:36:32;101219.97;;;13.56;47.63
42169;BME280;27838;43.858;25.974;2024-03-06T12:39:00;101222.59;;;13.56;47.29
42169;BME280;27838;43.858;25.974;2024-03-06T12:41:28;101210.31;;;13.64;47.20
42169;BME280;27838;43.858;25.974;2024-03-06T12:43:55;101219.03;;;13.69;46.79
42169;BME280;27838;43.858;25.974;2024-03-06T12:46:23;101220.78;;;13.64;48.01
42169;BME280;27838;43.858;25.974;2024-03-06T12:48:51;101222.53;;;13.65;47.61
42169;BME280;27838;43.858;25.974;2024-03-06T12:51:18;101219.94;;;13.67;47.42